Time;durP1;ratioP1;P1;durP2;ratioP2;P2;SDS_P1;SDS_P2;PMS_P1;PMS_P2;Temp;Humidity;BMP_temperature;BMP_pressure;BME280_temperature;BME280_humidity;BME280_pressure;Samples;Min_cycle;Max_cycle;Signal;HPM_P1;HPM_P2
2021/07/24 00:01:06;;;;;;;3.20;2.20;;;;;;;15.92;59.44;101280.28;5074392;28;20208;-71
2021/07/24 00:03:35;;;;;;;4.23;2.10;;;;;;;16.13;60.21;101324.59;5074431;28;20200;-71
2021/07/24 00:06:05;;;;;;;3.57;1.93;;;;;;;16.10;60.04;101323.00;5078224;28;20192;-66
2021/07/24 00:08:33;;;;;;;3.23;2.00;;;;;;;16.06;60.53;101324.25;5073176;28;20203;-71
2021/07/24 00:11:04;;;;;;;3.13;2.00;;;;;;;16.03;60.52;101323.63;5085381;28;20280;-66
2021/07/24 00:13:33;;;;;;;4.20;2.00;;;;;;;15.98;60.11;101324.00;5081372;28;20262;-71
2021/07/24 00:16:01;;;;;;;2.87;1.90;;;;;;;15.96;60.84;101320.56;5090227;28;20224;-71
2021/07/24 00:18:29;;;;;;;3.23;2.00;;;;;;;15.94;60.26;101319.84;5087826;28;20219;-66
2021/07/24 00:20:58;;;;;;;4.60;2.30;;;;;;;15.91;60.26;101319.19;5090092;28;20287;-67
2021/07/24 00:23:28;;;;;;;4.40;2.17;;;;;;;15.70;60.46;101295.59;5087742;28;20582;-71
2021/07/24 00:25:56;;;;;;;4.03;2.27;;;;;;;15.80;61.29;101318.22;5069888;28;20249;-71
2021/07/24 00:28:24;;;;;;;8.73;2.10;;;;;;;15.75;61.16;101319.59;5070880;28;20210;-66
2021/07/24 00:30:52;;;;;;;6.37;2.27;;;;;;;15.67;61.46;101320.19;5082538;28;20208;-66
2021/07/24 00:33:27;;;;;;;8.43;2.20;;;;;;;15.64;61.76;101320.44;5084075;28;20200;-71
2021/07/24 00:35:56;;;;;;;2.67;2.10;;;;;;;15.67;61.39;101316.63;5088761;28;20250;-66
2021/07/24 00:38:25;;;;;;;2.90;1.87;;;;;;;15.65;61.05;101318.59;5089956;28;20692;-71
2021/07/24 00:40:57;;;;;;;4.13;2.30;;;;;;;15.67;61.17;101314.78;5087957;28;20294;-66
2021/07/24 00:43:28;;;;;;;4.23;2.10;;;;;;;15.62;61.12;101308.88;5077055;28;20208;-72
2021/07/24 00:45:58;;;;;;;5.63;2.20;;;;;;;15.62;60.82;101308.88;5072319;28;20776;-71
2021/07/24 00:48:29;;;;;;;3.07;1.73;;;;;;;15.56;62.11;101313.88;5085419;28;20213;-71
2021/07/24 00:51:31;;;;;;;3.47;1.93;;;;;;;15.53;61.30;101314.97;5071389;28;20212;-71
2021/07/24 00:54:01;;;;;;;3.00;1.90;;;;;;;15.50;61.41;101304.38;5069195;28;20202;-66
2021/07/24 00:56:32;;;;;;;2.77;1.90;;;;;;;15.47;61.43;101307.34;5069384;28;20201;-66
2021/07/24 00:59:00;;;;;;;4.27;1.97;;;;;;;15.41;61.96;101305.13;5082066;28;20431;-71
2021/07/24 01:01:30;;;;;;;3.00;1.90;;;;;;;15.41;61.10;101306.00;5073742;28;20215;-66
2021/07/24 01:03:59;;;;;;;3.90;2.10;;;;;;;15.42;61.34;101304.16;5080002;28;20207;-65
2021/07/24 01:06:27;;;;;;;3.27;2.07;;;;;;;15.40;61.40;101304.28;5074779;28;20258;-71
2021/07/24 01:08:59;;;;;;;4.27;2.03;;;;;;;15.34;61.85;101304.75;5092226;28;20577;-71
2021/07/24 01:11:30;;;;;;;4.70;2.13;;;;;;;15.35;61.10;101301.06;5077620;28;20578;-71
2021/07/24 01:14:00;;;;;;;2.53;1.80;;;;;;;15.31;61.02;101298.72;5081401;28;20298;-71
2021/07/24 01:16:29;;;;;;;3.23;1.80;;;;;;;15.33;60.84;101307.59;5087735;28;20743;-71
2021/07/24 01:19:09;;;;;;;3.23;1.90;;;;;;;15.04;60.73;101262.03;5077255;28;20240;-71
2021/07/24 01:21:46;;;;;;;3.93;2.00;;;;;;;15.30;60.65;101302.38;5091019;28;20207;-70
2021/07/24 01:24:14;;;;;;;2.97;1.80;;;;;;;15.28;60.59;101312.47;5073271;28;20193;-71
2021/07/24 01:26:44;;;;;;;3.07;2.20;;;;;;;15.20;61.34;101294.13;5086856;28;20204;-71
2021/07/24 01:29:15;;;;;;;3.00;2.10;;;;;;;15.12;60.89;101281.22;5092061;28;20205;-72
2021/07/24 01:31:44;;;;;;;4.07;2.03;;;;;;;15.18;61.34;101293.41;5089101;28;20741;-71
2021/07/24 01:34:14;;;;;;;2.90;1.90;;;;;;;15.14;60.83;101298.19;5071844;28;20197;-71
2021/07/24 01:36:43;;;;;;;4.63;2.27;;;;;;;15.11;60.98;101295.72;5082401;28;20211;-71
2021/07/24 01:39:14;;;;;;;3.33;1.83;;;;;;;15.06;61.73;101300.63;5081365;28;20732;-71
2021/07/24 01:41:44;;;;;;;2.73;2.00;;;;;;;14.98;62.10;101292.22;5092682;28;20587;-71
2021/07/24 01:44:14;;;;;;;2.70;1.90;;;;;;;14.55;62.93;101244.16;5079636;28;20208;-71
2021/07/24 01:46:44;;;;;;;5.93;2.00;;;;;;;14.93;62.78;101299.84;5088428;28;20300;-71
2021/07/24 01:55:14;;;;;;;4.23;2.23;;;;;;;14.87;61.56;101293.06;5084656;28;20197;-71
2021/07/24 01:57:54;;;;;;;2.50;1.77;;;;;;;14.87;61.90;101297.63;5106917;28;20203;-66
2021/07/24 02:00:25;;;;;;;3.77;2.07;;;;;;;14.80;61.72;101288.25;5077007;28;20222;-66
2021/07/24 02:03:09;;;;;;;3.13;1.93;;;;;;;14.78;61.99;101292.94;5085725;28;20200;-66
2021/07/24 02:05:56;;;;;;;3.03;1.80;;;;;;;14.77;61.59;101296.63;5084861;28;20231;-66
2021/07/24 02:08:26;;;;;;;3.73;1.90;;;;;;;14.78;62.04;101295.63;5094268;28;20209;-66
2021/07/24 02:10:56;;;;;;;4.40;2.37;;;;;;;14.75;61.91;101295.88;5090547;28;20236;-66
2021/07/24 02:13:25;;;;;;;4.77;2.00;;;;;;;14.71;62.04;101292.53;5078323;28;20192;-66
2021/07/24 02:15:56;;;;;;;3.17;1.83;;;;;;;14.69;62.03;101296.31;5090868;28;20197;-66
2021/07/24 02:18:26;;;;;;;1.93;1.73;;;;;;;14.63;62.02;101286.84;5087438;28;20209;-71
2021/07/24 02:21:10;;;;;;;3.97;2.20;;;;;;;14.65;61.54;101295.69;5097764;28;20246;-66
2021/07/24 02:23:38;;;;;;;4.47;1.87;;;;;;;14.56;62.06;101285.56;5092168;28;20285;-70
2021/07/24 02:26:11;;;;;;;2.60;1.97;;;;;;;14.56;61.69;101285.56;5090653;28;20700;-66
2021/07/24 02:28:41;;;;;;;3.47;1.93;;;;;;;14.64;61.67;101299.38;5084992;28;20502;-71
2021/07/24 02:31:10;;;;;;;3.33;2.07;;;;;;;14.63;61.65;101300.34;5090435;28;20548;-71
2021/07/24 02:33:38;;;;;;;3.17;2.27;;;;;;;14.64;61.77;101301.22;5087380;28;20194;-71
2021/07/24 02:36:12;;;;;;;3.70;2.10;;;;;;;14.62;61.64;101297.75;5079027;28;20657;-66
2021/07/24 02:38:40;;;;;;;3.87;2.57;;;;;;;14.63;61.99;101294.94;5084532;28;20292;-66
2021/07/24 02:41:10;;;;;;;4.03;2.30;;;;;;;14.64;61.47;101303.91;5096416;28;20207;-72
2021/07/24 02:43:38;;;;;;;4.17;2.00;;;;;;;14.62;62.04;101292.34;5089863;28;20202;-66
2021/07/24 02:46:06;;;;;;;2.70;1.80;;;;;;;14.50;61.28;101272.53;5091764;28;20715;-66
2021/07/24 02:48:36;;;;;;;4.63;2.00;;;;;;;14.65;61.97;101294.81;5075491;28;20480;-66
2021/07/24 02:51:26;;;;;;;2.77;1.80;;;;;;;14.65;61.76;101295.69;5080243;28;20563;-67
2021/07/24 02:53:56;;;;;;;1.93;1.70;;;;;;;14.64;61.82;101287.69;5071675;28;20294;-66
2021/07/24 02:56:26;;;;;;;4.47;2.23;;;;;;;14.69;61.77;101301.72;5089973;28;20207;-66
2021/07/24 02:58:54;;;;;;;4.70;2.27;;;;;;;14.73;62.27;101303.25;5090551;28;20208;-72
2021/07/24 03:01:22;;;;;;;4.37;1.90;;;;;;;14.85;61.50;101297.75;5091172;28;20208;-66
2021/07/24 03:03:51;;;;;;;8.40;2.03;;;;;;;15.13;61.66;101296.47;5077363;28;20261;-67
2021/07/24 03:06:19;;;;;;;2.80;1.80;;;;;;;15.48;62.11;101301.81;5100060;28;20218;-66
2021/07/24 03:08:47;;;;;;;2.53;2.00;;;;;;;15.79;62.70;101294.84;5081098;28;20197;-66
2021/07/24 03:11:16;;;;;;;3.20;1.90;;;;;;;15.99;62.79;101286.94;5078989;28;20193;-67
2021/07/24 03:13:45;;;;;;;3.93;1.93;;;;;;;16.23;63.19;101298.47;5076815;28;20206;-72
2021/07/24 03:16:13;;;;;;;5.30;1.90;;;;;;;16.38;63.42;101296.34;5082652;28;20693;-72
2021/07/24 03:18:42;;;;;;;2.60;2.03;;;;;;;16.37;62.39;101273.78;5084532;28;20202;-66
2021/07/24 03:21:10;;;;;;;2.73;2.00;;;;;;;16.67;61.75;101305.63;5075825;28;20188;-67
2021/07/24 03:23:38;;;;;;;3.77;1.80;;;;;;;16.68;60.71;101304.66;5081996;28;20249;-70
2021/07/24 03:26:08;;;;;;;2.77;1.97;;;;;;;16.61;61.54;101302.56;5081358;28;20231;-67
2021/07/24 03:28:37;;;;;;;3.13;1.97;;;;;;;16.45;61.83;101290.25;5087516;28;20220;-70
2021/07/24 03:31:07;;;;;;;3.50;2.00;;;;;;;16.57;61.89;101312.81;5080524;28;20477;-66
2021/07/24 03:33:35;;;;;;;2.90;1.80;;;;;;;16.59;62.81;101309.97;5087031;28;20205;-70
2021/07/24 03:36:03;;;;;;;2.70;1.90;;;;;;;16.58;63.14;101310.94;5074246;28;20596;-70
2021/07/24 03:38:31;;;;;;;5.27;2.00;;;;;;;16.58;64.12;101313.66;5074197;28;20218;-70
2021/07/24 03:41:02;;;;;;;3.03;1.90;;;;;;;16.64;64.21;101307.72;5085901;28;20199;-70
2021/07/24 03:43:31;;;;;;;3.23;1.90;;;;;;;16.36;63.82;101266.66;5074928;28;20198;-70
2021/07/24 03:45:59;;;;;;;2.43;1.70;;;;;;;16.68;63.64;101306.50;5078446;28;20216;-70
2021/07/24 03:48:29;;;;;;;2.93;2.10;;;;;;;16.18;63.74;101249.19;5074544;28;20201;-70
2021/07/24 03:50:57;;;;;;;2.83;2.00;;;;;;;16.55;64.35;101313.91;5071066;28;20606;-70
2021/07/24 03:53:25;;;;;;;3.47;1.73;;;;;;;16.40;64.37;101289.78;5093443;28;20218;-67
2021/07/24 03:55:54;;;;;;;2.63;1.70;;;;;;;16.57;64.26;101309.22;5097341;28;20462;-66
2021/07/24 03:58:22;;;;;;;3.47;2.17;;;;;;;16.58;64.44;101308.22;5070843;28;20201;-66
2021/07/24 04:00:50;;;;;;;3.40;2.10;;;;;;;16.58;64.89;101308.22;5084056;28;20235;-66
2021/07/24 04:03:19;;;;;;;5.70;2.20;;;;;;;16.55;65.04;101300.38;5081255;28;20266;-66
2021/07/24 04:05:49;;;;;;;2.77;1.83;;;;;;;16.63;64.79;101306.00;5078086;28;20208;-66
2021/07/24 04:08:17;;;;;;;3.50;2.13;;;;;;;16.70;63.83;101310.78;5085932;28;20235;-66
2021/07/24 04:10:45;;;;;;;3.13;2.00;;;;;;;16.74;65.02;101314.09;5084508;28;20212;-66
2021/07/24 04:13:14;;;;;;;3.50;2.20;;;;;;;16.69;65.83;101311.78;5084539;28;20201;-66
2021/07/24 04:15:42;;;;;;;4.33;1.80;;;;;;;16.68;65.30;101309.22;5085800;28;20279;-70
2021/07/24 04:18:11;;;;;;;2.70;1.90;;;;;;;16.65;65.54;101309.44;5078709;28;20199;-69
2021/07/24 04:20:39;;;;;;;4.43;2.40;;;;;;;16.72;66.06;101313.38;5083627;28;20551;-70
2021/07/24 04:23:09;;;;;;;4.47;2.00;;;;;;;16.58;66.67;101284.69;5083896;28;20240;-70
2021/07/24 04:25:37;;;;;;;2.50;1.93;;;;;;;16.81;66.77;101312.59;5077945;28;20208;-70
2021/07/24 04:28:06;;;;;;;4.87;1.97;;;;;;;16.85;66.40;101311.38;5076440;28;20224;-66
2021/07/24 04:30:34;;;;;;;3.17;2.10;;;;;;;16.91;66.97;101315.41;5083508;28;20197;-66
2021/07/24 04:33:02;;;;;;;3.00;1.93;;;;;;;16.96;66.55;101311.31;5083147;28;20275;-67
2021/07/24 04:35:30;;;;;;;3.27;1.87;;;;;;;17.03;66.90;101312.50;5084815;28;20212;-66
2021/07/24 04:37:59;;;;;;;5.43;2.17;;;;;;;17.12;67.40;101312.69;5086209;28;20189;-67
2021/07/24 04:40:28;;;;;;;2.70;1.93;;;;;;;17.16;68.06;101314.16;5080258;28;20203;-67
2021/07/24 04:42:56;;;;;;;4.47;2.37;;;;;;;17.20;68.28;101321.03;5082393;28;20204;-66
2021/07/24 04:45:24;;;;;;;3.10;2.20;;;;;;;17.28;68.25;101318.53;5085534;28;20193;-65
2021/07/24 04:47:52;;;;;;;5.87;2.10;;;;;;;17.41;67.81;101330.03;5080475;28;20340;-65
2021/07/24 04:50:20;;;;;;;3.10;2.20;;;;;;;17.51;67.11;101320.09;5080648;28;20193;-65
2021/07/24 04:52:49;;;;;;;6.43;2.47;;;;;;;17.67;67.20;101325.91;5081613;28;20197;-65
2021/07/24 04:55:18;;;;;;;3.40;2.20;;;;;;;17.78;67.06;101324.13;5083675;28;20692;-65
2021/07/24 04:57:47;;;;;;;3.37;2.17;;;;;;;17.88;67.78;101327.75;5080886;28;20570;-66
2021/07/24 05:00:16;;;;;;;4.03;2.67;;;;;;;17.99;68.40;101330.34;5069681;28;20673;-70
2021/07/24 05:02:45;;;;;;;7.07;2.10;;;;;;;18.06;68.29;101325.22;5072077;28;20568;-70
2021/07/24 05:05:14;;;;;;;3.67;2.40;;;;;;;18.20;68.67;101328.44;5088315;28;20196;-70
2021/07/24 05:07:42;;;;;;;4.33;2.30;;;;;;;18.31;68.45;101317.41;5074438;28;20221;-70
2021/07/24 05:10:11;;;;;;;2.60;2.10;;;;;;;18.45;70.12;101331.63;5089203;28;20193;-71
2021/07/24 05:12:40;;;;;;;3.87;2.00;;;;;;;18.62;69.44;101328.25;5088754;28;20207;-65
2021/07/24 05:15:10;;;;;;;5.07;2.13;;;;;;;18.79;70.29;101326.69;5089038;28;20533;-65
2021/07/24 05:17:42;;;;;;;3.90;2.43;;;;;;;18.97;71.10;101333.13;5087009;28;20201;-69
2021/07/24 05:20:10;;;;;;;4.37;2.57;;;;;;;18.99;71.65;101298.47;5087261;28;20291;-66
2021/07/24 05:22:38;;;;;;;3.13;1.90;;;;;;;19.47;70.24;101325.59;5068833;28;20472;-66
2021/07/24 05:25:07;;;;;;;4.47;2.60;;;;;;;19.72;70.34;101331.47;5081008;28;20204;-65
2021/07/24 05:27:35;;;;;;;3.70;2.50;;;;;;;19.99;69.42;101331.50;5083608;28;20607;-65
2021/07/24 05:30:05;;;;;;;5.30;2.77;;;;;;;20.35;65.93;101331.59;5068985;28;20202;-65
2021/07/24 05:32:35;;;;;;;4.40;2.90;;;;;;;20.68;65.08;101335.56;5080668;28;20541;-70
2021/07/24 05:35:03;;;;;;;4.70;2.60;;;;;;;20.94;64.30;101328.31;5079900;28;20208;-65
2021/07/24 05:37:31;;;;;;;4.27;2.80;;;;;;;21.27;62.72;101332.22;5088711;28;20496;-70
2021/07/24 05:39:59;;;;;;;4.97;2.60;;;;;;;21.59;61.54;101328.84;5088559;28;20248;-70
2021/07/24 05:42:27;;;;;;;4.23;2.87;;;;;;;21.84;61.63;101340.78;5087779;28;20547;-70
2021/07/24 05:44:55;;;;;;;5.37;2.57;;;;;;;22.07;61.08;101327.44;5076117;28;20199;-70
2021/07/24 05:47:24;;;;;;;4.43;2.63;;;;;;;22.33;59.71;101332.81;5091721;28;20248;-65
2021/07/24 05:49:53;;;;;;;3.80;2.50;;;;;;;22.62;59.40;101340.59;5077925;28;20246;-65
2021/07/24 05:52:21;;;;;;;5.47;3.17;;;;;;;22.79;58.42;101334.16;5077257;28;20201;-71
2021/07/24 05:54:50;;;;;;;4.70;3.00;;;;;;;23.01;57.67;101335.41;5076667;28;20200;-65
2021/07/24 05:57:18;;;;;;;4.53;2.70;;;;;;;23.07;57.66;101331.97;5081476;28;20647;-70
2021/07/24 05:59:46;;;;;;;3.47;2.60;;;;;;;23.43;57.10;101332.47;5089275;28;20204;-71
2021/07/24 06:02:15;;;;;;;3.53;2.63;;;;;;;23.75;56.73;101337.06;5092419;28;20199;-70
2021/07/24 06:04:44;;;;;;;4.70;2.40;;;;;;;24.08;54.13;101326.84;5078309;28;20572;-70
2021/07/24 06:07:13;;;;;;;5.20;3.13;;;;;;;24.33;54.28;101338.63;5091642;28;20220;-65
2021/07/24 06:09:41;;;;;;;6.67;3.37;;;;;;;24.65;54.29;101336.72;5078343;28;20669;-70
2021/07/24 06:12:10;;;;;;;8.53;3.87;;;;;;;24.86;53.67;101331.44;5080919;28;20704;-70
2021/07/24 06:14:38;;;;;;;6.83;3.63;;;;;;;25.04;52.47;101339.38;5089874;28;20239;-71
2021/07/24 06:17:06;;;;;;;5.57;3.30;;;;;;;25.33;53.21;101330.38;5077790;28;20199;-70
2021/07/24 06:19:34;;;;;;;4.60;2.90;;;;;;;25.63;51.05;101334.88;5089916;28;20696;-66
2021/07/24 06:22:03;;;;;;;2.88;2.30;;;;;;;25.93;50.03;101334.94;5090661;28;20274;-70
2021/07/24 06:24:32;;;;;;;4.47;2.80;;;;;;;26.16;49.69;101330.19;5092044;28;20211;-70
2021/07/24 06:27:00;;;;;;;2.95;2.45;;;;;;;26.47;49.00;101332.75;5087198;28;20265;-71
2021/07/24 06:29:28;;;;;;;3.53;2.38;;;;;;;26.66;47.68;101331.28;5071828;28;20205;-65
2021/07/24 06:31:56;;;;;;;4.00;2.42;;;;;;;26.97;47.39;101330.13;5080999;28;20665;-65
2021/07/24 06:34:25;;;;;;;2.75;2.10;;;;;;;27.19;47.04;101327.16;5084823;28;20204;-65
2021/07/24 06:36:53;;;;;;;4.47;2.17;;;;;;;27.47;46.88;101329.94;5084489;28;20600;-65
2021/07/24 06:39:21;;;;;;;2.88;2.10;;;;;;;27.40;47.01;101322.66;5081496;28;20193;-71
2021/07/24 06:41:51;;;;;;;2.88;2.20;;;;;;;27.70;46.63;101328.88;5085246;28;20666;-65
2021/07/24 06:44:20;;;;;;;3.13;2.35;;;;;;;27.73;46.37;101322.94;5086987;28;20197;-65
2021/07/24 06:46:48;;;;;;;2.67;2.20;;;;;;;27.44;46.38;101308.28;5091380;28;20232;-65
2021/07/24 06:49:16;;;;;;;2.70;2.15;;;;;;;27.85;46.24;101332.34;5086342;28;20240;-66
2021/07/24 06:51:45;;;;;;;4.43;2.10;;;;;;;28.04;45.78;101334.41;5084544;28;20203;-71
2021/07/24 06:54:13;;;;;;;2.30;1.88;;;;;;;28.15;45.56;101328.28;5087492;28;20220;-65
2021/07/24 06:56:41;;;;;;;3.28;1.88;;;;;;;28.23;45.87;101329.19;5070888;28;20205;-65
2021/07/24 06:59:10;;;;;;;3.70;2.40;;;;;;;28.59;44.26;101334.47;5083463;28;20265;-65
2021/07/24 07:01:38;;;;;;;4.60;2.30;;;;;;;28.48;44.15;101337.84;5069573;28;20198;-65
2021/07/24 07:04:07;;;;;;;2.88;1.98;;;;;;;28.74;44.42;101338.75;5071848;28;20197;-66
2021/07/24 07:06:35;;;;;;;2.22;2.03;;;;;;;29.00;43.65;101339.91;5087778;28;20672;-66
2021/07/24 07:09:03;;;;;;;2.38;2.03;;;;;;;28.99;44.13;101340.97;5087511;28;20590;-66
2021/07/24 07:11:31;;;;;;;4.80;2.70;;;;;;;29.40;43.77;101346.34;5071465;28;20247;-66
2021/07/24 07:13:59;;;;;;;2.17;1.98;;;;;;;29.61;43.11;101335.03;5081504;28;20619;-66
2021/07/24 07:16:29;;;;;;;3.10;2.30;;;;;;;29.72;42.87;101341.88;5090112;28;20205;-66
2021/07/24 07:18:57;;;;;;;2.70;2.20;;;;;;;30.00;42.22;101333.25;5070562;28;20205;-66
2021/07/24 07:21:25;;;;;;;5.22;2.65;;;;;;;30.05;41.76;101332.66;5084157;28;20209;-66
2021/07/24 07:23:53;;;;;;;2.40;2.20;;;;;;;30.27;41.51;101332.13;5084370;28;20694;-66
2021/07/24 07:26:25;;;;;;;4.40;2.47;;;;;;;30.32;41.20;101337.06;5078336;28;20626;-66
2021/07/24 07:28:54;;;;;;;3.30;2.50;;;;;;;30.64;40.79;101334.38;5087691;28;20212;-66
2021/07/24 07:31:24;;;;;;;3.08;2.35;;;;;;;30.82;40.12;101338.09;5091104;28;20598;-66
2021/07/24 07:33:53;;;;;;;3.20;2.38;;;;;;;31.03;39.78;101333.25;5072069;28;20201;-67
2021/07/24 07:36:21;;;;;;;4.97;2.47;;;;;;;30.67;40.83;101339.47;5080642;28;20561;-66
2021/07/24 07:38:50;;;;;;;3.50;2.33;;;;;;;31.08;39.52;101336.22;5089631;28;20897;-65
2021/07/24 07:41:18;;;;;;;8.68;2.80;;;;;;;31.09;39.89;101333.22;5081540;28;20204;-70
2021/07/24 07:43:47;;;;;;;2.33;2.13;;;;;;;31.33;39.31;101341.81;5084036;28;20197;-71
2021/07/24 07:46:15;;;;;;;6.13;2.30;;;;;;;31.48;38.91;101340.38;5077763;28;20185;-71
2021/07/24 07:48:44;;;;;;;3.28;2.45;;;;;;;31.43;38.17;101294.94;5075635;28;20217;-70
2021/07/24 07:51:13;;;;;;;3.80;2.80;;;;;;;31.74;38.52;101347.66;5075953;28;20189;-70
2021/07/24 07:53:41;;;;;;;3.92;2.75;;;;;;;31.73;38.58;101334.84;5090076;28;20652;-70
2021/07/24 07:56:10;;;;;;;2.88;2.20;;;;;;;31.87;38.46;101340.28;5072324;28;20745;-70
2021/07/24 07:58:39;;;;;;;3.80;2.38;;;;;;;31.76;38.28;101306.59;5078830;28;20204;-71
2021/07/24 08:01:11;;;;;;;3.28;2.40;;;;;;;32.24;37.34;101344.78;5085062;28;20202;-71
2021/07/24 08:03:40;;;;;;;4.75;2.72;;;;;;;31.95;37.31;101331.63;5090074;28;20205;-71
2021/07/24 08:06:09;;;;;;;5.22;2.47;;;;;;;31.97;37.62;101338.66;5088983;28;20220;-71
2021/07/24 08:08:38;;;;;;;2.67;2.03;;;;;;;32.36;36.81;101342.94;5089718;28;20223;-71
2021/07/24 08:11:06;;;;;;;4.35;2.28;;;;;;;32.47;36.94;101324.63;5089515;28;20210;-70
2021/07/24 08:13:34;;;;;;;2.55;2.08;;;;;;;32.73;35.66;101318.66;5085663;28;20669;-71
2021/07/24 08:16:03;;;;;;;2.95;2.38;;;;;;;33.03;34.56;101335.38;5089567;28;20222;-71
2021/07/24 08:18:31;;;;;;;2.42;1.95;;;;;;;33.19;34.89;101338.56;5075292;28;20609;-71
2021/07/24 08:21:00;;;;;;;2.88;2.17;;;;;;;32.98;33.44;101332.47;5085530;28;20201;-71
2021/07/24 08:23:28;;;;;;;6.03;2.33;;;;;;;32.79;34.37;101277.13;5089571;28;20236;-66
2021/07/24 08:25:57;;;;;;;2.45;2.00;;;;;;;33.07;34.38;101330.19;5085383;28;20565;-66
2021/07/24 08:28:27;;;;;;;2.10;1.85;;;;;;;32.48;33.42;101328.25;5083857;28;20604;-66
2021/07/24 08:30:56;;;;;;;2.78;2.00;;;;;;;32.65;33.15;101323.72;5084909;28;20593;-67
2021/07/24 08:33:24;;;;;;;2.10;1.90;;;;;;;32.71;33.17;101317.19;5085206;28;20199;-66
2021/07/24 08:35:52;;;;;;;4.47;2.08;;;;;;;32.58;32.71;101309.06;5069412;28;20201;-66
2021/07/24 08:38:20;;;;;;;3.05;2.30;;;;;;;32.50;33.41;101321.38;5075733;28;20571;-66
2021/07/24 08:40:49;;;;;;;3.83;1.98;;;;;;;32.72;33.85;101327.25;5083382;28;20235;-66
2021/07/24 08:43:19;;;;;;;2.90;2.15;;;;;;;33.10;33.43;101323.31;5080400;28;20204;-73
2021/07/24 08:45:47;;;;;;;2.97;1.88;;;;;;;33.38;33.22;101320.72;5081674;28;20538;-71
2021/07/24 08:48:15;;;;;;;3.63;2.15;;;;;;;33.13;32.56;101317.25;5079340;28;20204;-74
2021/07/24 08:50:45;;;;;;;2.97;2.10;;;;;;;33.37;32.72;101319.03;5071775;28;20744;-72
2021/07/24 08:53:20;;;;;;;3.53;2.10;;;;;;;33.59;32.26;101311.75;5085400;28;20228;-71
2021/07/24 08:55:48;;;;;;;3.70;2.53;;;;;;;33.67;32.17;101315.25;5072300;28;20196;-71
2021/07/24 08:58:18;;;;;;;4.45;2.33;;;;;;;33.96;32.25;101317.06;5086424;28;20192;-71
2021/07/24 09:00:47;;;;;;;3.17;2.17;;;;;;;34.20;31.79;101315.94;5081034;28;20197;-71
2021/07/24 09:03:19;;;;;;;6.18;2.25;;;;;;;34.31;31.27;101313.38;5081278;28;20199;-71
2021/07/24 09:05:50;;;;;;;4.00;2.30;;;;;;;34.38;31.45;101308.53;5079914;28;20224;-71
2021/07/24 09:08:19;;;;;;;2.78;2.13;;;;;;;34.48;31.12;101312.38;5086110;28;20204;-66
2021/07/24 09:10:50;;;;;;;2.38;2.08;;;;;;;34.62;30.67;101304.56;5086682;28;20224;-70
2021/07/24 09:13:20;;;;;;;2.42;1.90;;;;;;;34.09;30.05;101314.03;5078059;28;20205;-71
2021/07/24 09:15:48;;;;;;;2.40;1.60;;;;;;;34.37;30.00;101307.69;5088730;28;20203;-71
2021/07/24 09:18:17;;;;;;;2.17;1.83;;;;;;;34.00;28.73;101314.69;5087561;28;20210;-71
2021/07/24 09:20:47;;;;;;;2.25;1.77;;;;;;;33.87;29.80;101302.66;5077511;28;20669;-71
2021/07/24 09:23:26;;;;;;;2.22;1.88;;;;;;;33.59;28.66;101322.03;5078416;28;20229;-70
2021/07/24 09:25:55;;;;;;;1.70;1.60;;;;;;;33.29;29.21;101311.81;5092930;28;20203;-71
2021/07/24 09:28:27;;;;;;;1.80;1.70;;;;;;;33.27;29.62;101314.00;5090916;28;20742;-71
2021/07/24 09:30:55;;;;;;;2.85;1.55;;;;;;;33.61;30.47;101319.88;5079980;28;20279;-66
2021/07/24 09:33:23;;;;;;;2.72;1.67;;;;;;;33.63;28.60;101317.69;5092663;28;20200;-66
2021/07/24 09:36:01;;;;;;;1.73;1.63;;;;;;;33.65;29.05;101313.56;5085118;28;20208;-71
2021/07/24 09:38:32;;;;;;;1.90;1.63;;;;;;;33.23;29.41;101310.00;5072631;28;20267;-71
2021/07/24 09:41:02;;;;;;;2.08;1.80;;;;;;;32.71;28.92;101311.63;5079051;28;20220;-71
2021/07/24 09:43:36;;;;;;;2.05;1.80;;;;;;;33.43;29.21;101323.63;5092704;28;20204;-71
2021/07/24 09:46:12;;;;;;;1.55;1.45;;;;;;;33.29;28.03;101317.38;5092680;28;20196;-66
2021/07/24 09:48:41;;;;;;;1.90;1.70;;;;;;;33.02;28.69;101294.69;5092641;28;20200;-66
2021/07/24 09:51:10;;;;;;;2.42;1.83;;;;;;;32.91;27.54;101323.38;5092750;28;20215;-65
2021/07/24 09:53:39;;;;;;;2.63;1.55;;;;;;;32.66;27.84;101311.50;5080025;28;20563;-66
2021/07/24 09:56:11;;;;;;;1.92;1.70;;;;;;;32.95;28.11;101315.38;5086413;28;20212;-65
2021/07/24 09:58:40;;;;;;;1.52;1.40;;;;;;;33.08;29.19;101314.34;5081822;28;20228;-72
2021/07/24 10:01:10;;;;;;;1.40;1.30;;;;;;;33.28;26.35;101303.69;5077826;28;20185;-72
2021/07/24 10:03:40;;;;;;;0.90;0.90;;;;;;;32.51;23.15;101299.97;5092676;28;20200;-70
2021/07/24 10:06:12;;;;;;;0.95;0.95;;;;;;;32.09;21.95;101299.81;5088224;28;20720;-70
2021/07/24 10:08:42;;;;;;;1.30;1.20;;;;;;;32.63;25.42;101301.69;5081973;28;20199;-66
2021/07/24 10:11:11;;;;;;;0.98;0.98;;;;;;;32.22;23.01;101293.25;5077697;28;20225;-66
2021/07/24 10:13:43;;;;;;;1.02;1.02;;;;;;;32.73;23.31;101299.19;5089473;28;20223;-65
2021/07/24 10:16:11;;;;;;;0.60;0.60;;;;;;;32.92;22.73;101296.38;5079299;28;20620;-65
2021/07/24 10:18:42;;;;;;;1.33;1.23;;;;;;;32.97;24.13;101308.50;5088424;28;20242;-66
2021/07/24 10:21:10;;;;;;;1.70;1.30;;;;;;;33.22;24.66;101304.66;5090423;28;20196;-65
2021/07/24 10:23:39;;;;;;;1.60;1.50;;;;;;;32.91;23.99;101298.31;5086998;28;20224;-66
2021/07/24 10:26:11;;;;;;;1.60;1.50;;;;;;;32.76;23.80;101308.13;5081396;28;20201;-65
2021/07/24 10:28:53;;;;;;;1.83;1.67;;;;;;;33.38;25.83;101304.00;5087247;28;20527;-66
2021/07/24 10:31:27;;;;;;;2.00;1.50;;;;;;;33.96;28.15;101305.91;5088123;28;20300;-66
2021/07/24 10:33:59;;;;;;;1.45;1.35;;;;;;;34.38;28.40;101301.00;5084372;28;20242;-65
2021/07/24 10:36:36;;;;;;;1.70;1.58;;;;;;;34.72;28.16;101299.16;5086364;28;20197;-71
2021/07/24 10:39:06;;;;;;;2.13;1.70;;;;;;;34.40;26.94;101307.19;5080203;28;20201;-66
2021/07/24 10:41:44;;;;;;;2.40;2.13;;;;;;;34.33;27.62;101300.88;5081597;28;20790;-67
2021/07/24 10:44:16;;;;;;;1.73;1.63;;;;;;;34.69;28.66;101304.41;5090865;28;20211;-66
2021/07/24 10:47:16;;;;;;;1.85;1.70;;;;;;;34.87;28.48;101301.41;5087989;28;20197;-65
2021/07/24 10:50:05;;;;;;;2.20;1.63;;;;;;;34.83;26.79;101300.19;5085046;28;20209;-66
2021/07/24 10:53:09;;;;;;;1.90;1.67;;;;;;;34.51;25.15;101295.13;5085942;28;20201;-66
2021/07/24 10:55:44;;;;;;;2.10;1.65;;;;;;;34.05;27.66;101303.63;5082540;28;20692;-66
2021/07/24 10:58:13;;;;;;;1.85;1.67;;;;;;;34.49;27.87;101293.69;5080631;28;20204;-71
2021/07/24 11:00:53;;;;;;;1.70;1.60;;;;;;;34.89;28.85;101278.81;5082569;28;20201;-71
2021/07/24 11:03:36;;;;;;;1.80;1.70;;;;;;;35.17;27.09;101293.56;5079983;28;20236;-71
2021/07/24 11:06:28;;;;;;;1.60;1.50;;;;;;;34.54;27.29;101296.56;5073889;28;20247;-71
2021/07/24 11:09:10;;;;;;;1.80;1.70;;;;;;;34.20;27.89;101290.84;5078163;28;20701;-66
2021/07/24 11:11:44;;;;;;;1.50;1.40;;;;;;;34.33;27.19;101286.94;5082156;28;20316;-66
2021/07/24 11:14:58;;;;;;;2.05;1.83;;;;;;;34.59;28.08;101288.28;5082155;28;20732;-66
2021/07/24 11:17:28;;;;;;;1.85;1.60;;;;;;;34.17;28.00;101282.97;5089589;28;20201;-66
2021/07/24 11:20:35;;;;;;;1.92;1.70;;;;;;;34.11;27.77;101288.69;5080835;28;20662;-66
2021/07/24 11:23:06;;;;;;;2.70;1.73;;;;;;;34.41;28.62;101292.13;5078815;28;20281;-66
2021/07/24 11:25:36;;;;;;;1.85;1.48;;;;;;;34.50;28.25;101289.78;5084710;28;20278;-66
2021/07/24 11:28:05;;;;;;;2.20;1.80;;;;;;;34.83;29.54;101295.47;5077967;28;20200;-66
2021/07/24 11:30:33;;;;;;;3.92;1.98;;;;;;;34.79;28.14;101288.69;5087898;28;22141;-66
2021/07/24 11:33:04;;;;;;;2.00;1.80;;;;;;;34.97;29.34;101284.00;5085867;28;20200;-66
2021/07/24 11:35:38;;;;;;;2.00;1.60;;;;;;;35.29;29.31;101292.66;5089737;28;20222;-66
2021/07/24 11:38:21;;;;;;;1.50;1.40;;;;;;;35.54;29.94;101292.25;5087339;28;20204;-67
2021/07/24 11:41:00;;;;;;;2.10;1.80;;;;;;;35.37;28.85;101245.59;5084980;28;20247;-71
2021/07/24 11:43:29;;;;;;;1.88;1.77;;;;;;;35.04;28.00;101281.88;5084047;28;20242;-71
2021/07/24 11:46:06;;;;;;;1.90;1.70;;;;;;;35.00;28.11;101283.50;5088839;28;20206;-66